Time;durP1;ratioP1;P1;durP2;ratioP2;P2;SDS_P1;SDS_P2;PMS_P1;PMS_P2;Temp;Humidity;BMP_temperature;BMP_pressure;BME280_temperature;BME280_humidity;BME280_pressure;Samples;Min_cycle;Max_cycle;Signal;HPM_P1;HPM_P2
2022/07/06 00:01:50;;;;;;;13.73;5.22;;;;;;;;;;6209146;23;20159;-89
2022/07/06 00:04:55;;;;;;;8.73;5.70;;;;;;;;;;6209790;23;20246;-89
2022/07/06 00:08:01;;;;;;;8.05;5.47;;;;;;;;;;6210688;23;20194;-89
2022/07/06 00:11:06;;;;;;;7.03;5.45;;;;;;;;;;6211242;23;20167;-91
2022/07/06 00:14:14;;;;;;;10.00;5.25;;;;;;;;;;6208580;23;20171;-91
2022/07/06 00:17:19;;;;;;;8.48;5.50;;;;;;;;;;6209917;23;20167;-90
2022/07/06 00:20:24;;;;;;;7.78;6.00;;;;;;;;;;6209395;23;20171;-89
2022/07/06 00:23:30;;;;;;;6.85;4.60;;;;;;;;;;6208039;23;20240;-89
2022/07/06 00:26:35;;;;;;;14.00;5.80;;;;;;;;;;6209093;23;20215;-90
2022/07/06 00:29:43;;;;;;;13.00;5.93;;;;;;;;;;6208331;23;20210;-90
2022/07/06 00:32:49;;;;;;;9.15;5.25;;;;;;;;;;6208000;23;20168;-89
2022/07/06 00:35:54;;;;;;;9.55;5.25;;;;;;;;;;6208216;23;20203;-91
2022/07/06 00:38:59;;;;;;;8.05;5.40;;;;;;;;;;6207307;23;20598;-90
2022/07/06 00:42:04;;;;;;;5.75;4.85;;;;;;;;;;6207938;23;20242;-90
2022/07/06 00:45:11;;;;;;;9.90;5.70;;;;;;;;;;6207211;23;20194;-90
2022/07/06 00:48:17;;;;;;;17.55;5.80;;;;;;;;;;6205229;23;20190;-90
2022/07/06 00:51:24;;;;;;;13.50;5.75;;;;;;;;;;6206627;23;20218;-91
2022/07/06 00:54:29;;;;;;;7.38;5.70;;;;;;;;;;6207328;23;20156;-91
2022/07/06 00:57:35;;;;;;;15.25;6.00;;;;;;;;;;6206871;23;20179;-91
2022/07/06 01:00:44;;;;;;;11.55;5.80;;;;;;;;;;6208551;23;20163;-90
2022/07/06 01:03:50;;;;;;;6.85;5.57;;;;;;;;;;6207261;23;20163;-89
2022/07/06 01:06:55;;;;;;;8.75;5.53;;;;;;;;;;6211368;23;20183;-90
2022/07/06 01:10:00;;;;;;;11.10;6.63;;;;;;;;;;6207956;23;20595;-90
2022/07/06 01:13:06;;;;;;;14.05;7.22;;;;;;;;;;6207600;23;20224;-89
2022/07/06 01:16:13;;;;;;;14.05;7.45;;;;;;;;;;6208957;23;20167;-89
2022/07/06 01:19:19;;;;;;;12.48;7.97;;;;;;;;;;6226193;23;20254;-90
2022/07/06 01:22:26;;;;;;;15.75;8.57;;;;;;;;;;6207467;23;20163;-89
2022/07/06 01:25:32;;;;;;;11.40;7.63;;;;;;;;;;6207611;23;20191;-90
2022/07/06 01:28:37;;;;;;;10.80;7.68;;;;;;;;;;6208462;23;20194;-89
2022/07/06 01:31:48;;;;;;;12.60;7.22;;;;;;;;;;6210426;23;20207;-90
2022/07/06 01:34:53;;;;;;;15.98;7.35;;;;;;;;;;6208069;23;20167;-90
2022/07/06 01:38:00;;;;;;;10.95;7.00;;;;;;;;;;6206625;23;20407;-89
2022/07/06 01:41:06;;;;;;;10.90;6.88;;;;;;;;;;6207906;23;20158;-90
2022/07/06 01:44:12;;;;;;;14.23;7.40;;;;;;;;;;6208722;23;20509;-89
2022/07/06 01:47:17;;;;;;;11.27;8.25;;;;;;;;;;6209509;23;20195;-90
2022/07/06 01:50:22;;;;;;;15.85;9.43;;;;;;;;;;6208427;23;20170;-90
2022/07/06 01:53:28;;;;;;;18.15;10.13;;;;;;;;;;6208180;23;20722;-92
2022/07/06 01:56:34;;;;;;;16.10;9.93;;;;;;;;;;6206845;23;20166;-90
2022/07/06 01:59:42;;;;;;;20.50;9.68;;;;;;;;;;6207587;23;20171;-89
2022/07/06 02:02:47;;;;;;;13.70;9.18;;;;;;;;;;6207491;23;20167;-90
2022/07/06 02:05:52;;;;;;;14.05;8.30;;;;;;;;;;6208237;23;20218;-90
2022/07/06 02:09:01;;;;;;;11.88;8.73;;;;;;;;;;6209692;23;20195;-90
2022/07/06 02:12:06;;;;;;;12.07;8.48;;;;;;;;;;6207170;23;20242;-90
2022/07/06 02:15:12;;;;;;;15.23;8.88;;;;;;;;;;6208923;23;20159;-90
2022/07/06 02:18:19;;;;;;;12.38;8.65;;;;;;;;;;6209716;23;20230;-89
2022/07/06 02:21:24;;;;;;;18.33;8.57;;;;;;;;;;6208250;23;20230;-90
2022/07/06 02:24:31;;;;;;;16.23;7.97;;;;;;;;;;6209548;23;20154;-90
2022/07/06 02:27:36;;;;;;;9.00;7.10;;;;;;;;;;6207854;23;20190;-91
2022/07/06 02:30:44;;;;;;;14.82;7.45;;;;;;;;;;6209320;23;20151;-90
2022/07/06 02:33:50;;;;;;;12.35;6.82;;;;;;;;;;6209486;23;20638;-90
2022/07/06 02:37:00;;;;;;;11.73;7.68;;;;;;;;;;6210500;23;20443;-89
2022/07/06 02:40:07;;;;;;;10.80;7.35;;;;;;;;;;6210137;23;20168;-90
2022/07/06 02:43:12;;;;;;;17.17;7.75;;;;;;;;;;6207833;23;20186;-88
2022/07/06 02:46:19;;;;;;;19.45;9.73;;;;;;;;;;6207727;23;20166;-89
2022/07/06 02:49:25;;;;;;;25.77;11.18;;;;;;;;;;6209928;23;20155;-90
2022/07/06 02:52:30;;;;;;;27.10;11.85;;;;;;;;;;6209235;23;20250;-90
2022/07/06 02:55:38;;;;;;;25.98;12.38;;;;;;;;;;6211690;23;20171;-89
2022/07/06 02:58:45;;;;;;;27.80;12.32;;;;;;;;;;6210663;23;20218;-89
2022/07/06 03:01:52;;;;;;;12.35;7.88;;;;;;;;;;6209433;23;20244;-89
2022/07/06 03:04:58;;;;;;;12.05;7.43;;;;;;;;;;6210992;23;20158;-90
2022/07/06 03:08:05;;;;;;;11.45;7.50;;;;;;;;;;6209123;23;20519;-90
2022/07/06 03:11:11;;;;;;;18.85;8.20;;;;;;;;;;6210177;23;20221;-91
2022/07/06 03:14:17;;;;;;;18.88;9.18;;;;;;;;;;6210515;23;20168;-91
2022/07/06 03:17:27;;;;;;;16.33;9.20;;;;;;;;;;6208190;23;20207;-89
2022/07/06 03:20:32;;;;;;;20.10;10.00;;;;;;;;;;6210462;23;20184;-90
2022/07/06 03:23:38;;;;;;;14.85;9.45;;;;;;;;;;6211234;23;20170;-90
2022/07/06 03:26:45;;;;;;;17.35;9.60;;;;;;;;;;6211034;23;20198;-91
2022/07/06 03:29:52;;;;;;;19.25;9.60;;;;;;;;;;6209793;23;20175;-89
2022/07/06 03:32:59;;;;;;;21.17;10.90;;;;;;;;;;6210100;23;20186;-89
2022/07/06 03:36:07;;;;;;;23.60;10.05;;;;;;;;;;6209887;23;20171;-89
2022/07/06 03:39:13;;;;;;;19.95;10.82;;;;;;;;;;6211637;23;20231;-90
2022/07/06 03:42:21;;;;;;;19.38;10.30;;;;;;;;;;6211091;23;20171;-91
2022/07/06 03:45:27;;;;;;;18.02;9.80;;;;;;;;;;6211393;23;20595;-89
2022/07/06 03:48:34;;;;;;;31.02;10.35;;;;;;;;;;6211218;23;20265;-91
2022/07/06 03:51:40;;;;;;;16.60;9.50;;;;;;;;;;6208634;23;20175;-88
2022/07/06 03:54:46;;;;;;;17.38;9.65;;;;;;;;;;6210788;23;20191;-89
2022/07/06 03:57:58;;;;;;;17.15;9.23;;;;;;;;;;6210547;23;20299;-89
2022/07/06 04:01:09;;;;;;;12.75;9.07;;;;;;;;;;6210118;23;20171;-90
2022/07/06 04:04:14;;;;;;;14.80;9.48;;;;;;;;;;6211052;23;20167;-90
2022/07/06 04:07:22;;;;;;;12.82;8.85;;;;;;;;;;6208751;23;20238;-89
2022/07/06 04:10:28;;;;;;;12.23;8.60;;;;;;;;;;6211303;23;20151;-88
2022/07/06 04:13:38;;;;;;;12.68;8.18;;;;;;;;;;6211709;23;20166;-89
2022/07/06 04:16:44;;;;;;;13.23;7.93;;;;;;;;;;6210552;23;20283;-88
2022/07/06 04:19:49;;;;;;;11.75;8.52;;;;;;;;;;6210878;23;20627;-88
2022/07/06 04:22:54;;;;;;;20.33;8.57;;;;;;;;;;6209771;23;20163;-88
2022/07/06 04:26:02;;;;;;;10.02;6.93;;;;;;;;;;6211317;23;20167;-90
2022/07/06 04:29:12;;;;;;;18.30;7.40;;;;;;;;;;6212817;23;20207;-88
2022/07/06 04:32:18;;;;;;;13.85;7.38;;;;;;;;;;6213265;23;20170;-89
2022/07/06 04:35:23;;;;;;;10.57;7.05;;;;;;;;;;6212905;23;20167;-89
2022/07/06 04:38:31;;;;;;;12.50;7.47;;;;;;;;;;6213965;23;20287;-90
2022/07/06 04:41:40;;;;;;;10.35;7.03;;;;;;;;;;6212490;23;20500;-89
2022/07/06 04:44:48;;;;;;;9.75;7.15;;;;;;;;;;6211510;23;20240;-91
2022/07/06 04:47:53;;;;;;;10.25;7.28;;;;;;;;;;6213943;23;20186;-90
2022/07/06 04:51:00;;;;;;;8.43;6.63;;;;;;;;;;6214432;23;20167;-90
2022/07/06 04:54:07;;;;;;;12.68;7.32;;;;;;;;;;6211948;23;20244;-91
2022/07/06 04:57:14;;;;;;;10.85;7.53;;;;;;;;;;6212687;23;20159;-90
2022/07/06 05:00:23;;;;;;;10.63;7.03;;;;;;;;;;6212054;23;20507;-89
2022/07/06 05:03:29;;;;;;;11.88;7.78;;;;;;;;;;6214469;23;20193;-89
2022/07/06 05:06:35;;;;;;;10.35;7.72;;;;;;;;;;6214049;23;20225;-89
2022/07/06 05:09:40;;;;;;;12.68;7.57;;;;;;;;;;6213112;23;20248;-89
2022/07/06 05:12:46;;;;;;;9.30;6.95;;;;;;;;;;6214141;23;20171;-89
2022/07/06 05:16:06;;;;;;;11.85;7.63;;;;;;;;;;6212304;23;20155;-89
2022/07/06 05:22:32;;;;;;;10.10;7.45;;;;;;;;;;6214392;23;20168;-88
2022/07/06 05:25:49;;;;;;;12.00;8.32;;;;;;;;;;6214004;23;20147;-89
2022/07/06 05:28:55;;;;;;;12.30;7.30;;;;;;;;;;6211855;23;20230;-89
2022/07/06 05:32:05;;;;;;;10.90;7.35;;;;;;;;;;6212516;23;20187;-90
2022/07/06 05:35:10;;;;;;;11.80;7.90;;;;;;;;;;6215058;23;20200;-89
2022/07/06 05:38:16;;;;;;;9.77;7.43;;;;;;;;;;6214908;23;20456;-89
2022/07/06 05:41:22;;;;;;;13.85;7.80;;;;;;;;;;6214385;23;20220;-90
2022/07/06 05:51:13;;;;;;;16.25;8.40;;;;;;;;;;6214027;23;20190;-89
2022/07/06 05:54:21;;;;;;;10.05;7.90;;;;;;;;;;6213533;23;20177;-88
2022/07/06 05:57:27;;;;;;;12.25;7.88;;;;;;;;;;6214756;23;20179;-90
2022/07/06 06:00:32;;;;;;;11.13;7.57;;;;;;;;;;6212724;23;20158;-88
2022/07/06 06:03:43;;;;;;;13.07;7.75;;;;;;;;;;6212073;23;20176;-90
2022/07/06 06:06:49;;;;;;;11.07;7.35;;;;;;;;;;6210884;23;20591;-89
2022/07/06 06:09:55;;;;;;;11.25;7.18;;;;;;;;;;6213325;23;20178;-89
2022/07/06 06:13:00;;;;;;;12.20;7.45;;;;;;;;;;6210464;23;20163;-90
2022/07/06 06:16:07;;;;;;;11.93;7.50;;;;;;;;;;6209790;23;20607;-88
2022/07/06 06:19:30;;;;;;;8.85;6.88;;;;;;;;;;6217462;23;20163;-92
2022/07/06 06:22:46;;;;;;;12.05;7.90;;;;;;;;;;6210105;23;20168;-90
2022/07/06 06:25:51;;;;;;;11.77;7.80;;;;;;;;;;6212356;23;20271;-90
2022/07/06 06:28:56;;;;;;;10.88;6.85;;;;;;;;;;6211800;23;20229;-90
2022/07/06 06:32:01;;;;;;;9.80;6.63;;;;;;;;;;6212756;23;20262;-91
2022/07/06 06:35:09;;;;;;;12.70;6.55;;;;;;;;;;6212681;23;20183;-90
2022/07/06 06:38:15;;;;;;;10.20;6.35;;;;;;;;;;6210795;23;20237;-90
2022/07/06 06:41:20;;;;;;;7.60;5.25;;;;;;;;;;6210728;23;20171;-90
2022/07/06 06:44:25;;;;;;;11.43;5.20;;;;;;;;;;6208611;23;20330;-90
2022/07/06 06:47:31;;;;;;;9.60;4.80;;;;;;;;;;6211439;23;20249;-90
2022/07/06 06:50:38;;;;;;;7.30;3.65;;;;;;;;;;6209706;23;20170;-91
2022/07/06 06:53:43;;;;;;;7.13;3.20;;;;;;;;;;6210727;23;20183;-91
2022/07/06 06:56:48;;;;;;;4.53;2.60;;;;;;;;;;6209476;23;20232;-89
2022/07/06 06:59:54;;;;;;;5.68;2.50;;;;;;;;;;6210481;23;20206;-89
2022/07/06 07:03:00;;;;;;;4.05;2.22;;;;;;;;;;6209977;23;20159;-90
2022/07/06 07:06:07;;;;;;;3.95;2.50;;;;;;;;;;6210850;23;20155;-91
2022/07/06 07:09:12;;;;;;;3.97;2.67;;;;;;;;;;6212626;23;20206;-92
2022/07/06 07:12:18;;;;;;;5.55;2.50;;;;;;;;;;6212568;23;20262;-91
2022/07/06 07:15:23;;;;;;;7.72;3.70;;;;;;;;;;6211028;23;20171;-89
2022/07/06 07:18:28;;;;;;;4.75;2.80;;;;;;;;;;6211413;23;20175;-91
2022/07/06 07:21:35;;;;;;;8.82;3.30;;;;;;;;;;6209948;23;20175;-91
2022/07/06 07:24:40;;;;;;;4.35;3.35;;;;;;;;;;6212582;23;20167;-90
2022/07/06 07:27:45;;;;;;;6.60;3.30;;;;;;;;;;6211631;23;20494;-91
2022/07/06 07:30:51;;;;;;;7.00;3.22;;;;;;;;;;6214292;23;20263;-89
2022/07/06 07:33:58;;;;;;;7.93;3.10;;;;;;;;;;6214582;23;20187;-88
2022/07/06 07:37:05;;;;;;;11.73;3.15;;;;;;;;;;6213181;23;20167;-89
2022/07/06 07:40:11;;;;;;;8.13;3.33;;;;;;;;;;6212264;23;20261;-91
2022/07/06 07:43:16;;;;;;;4.15;2.90;;;;;;;;;;6210167;23;20178;-90
2022/07/06 07:46:21;;;;;;;6.03;3.30;;;;;;;;;;6212443;23;20215;-88
2022/07/06 07:49:26;;;;;;;5.63;3.67;;;;;;;;;;6210023;23;20241;-89
2022/07/06 07:52:33;;;;;;;5.68;3.60;;;;;;;;;;6214580;23;20237;-88
2022/07/06 07:55:39;;;;;;;8.95;3.40;;;;;;;;;;6209473;23;20166;-91
2022/07/06 07:58:43;;;;;;;6.63;3.38;;;;;;;;;;6209820;23;20175;-89
2022/07/06 08:01:51;;;;;;;5.05;3.20;;;;;;;;;;6211333;23;20167;-90
2022/07/06 08:04:56;;;;;;;6.13;3.35;;;;;;;;;;6213467;23;20191;-90
2022/07/06 08:08:03;;;;;;;7.18;2.55;;;;;;;;;;6215045;23;20214;-90
2022/07/06 08:11:09;;;;;;;5.90;3.20;;;;;;;;;;6210559;23;20186;-90
2022/07/06 08:14:16;;;;;;;5.03;3.20;;;;;;;;;;6210663;23;20718;-90
2022/07/06 08:17:22;;;;;;;6.15;2.60;;;;;;;;;;6210639;23;20175;-90
2022/07/06 08:20:27;;;;;;;3.40;2.60;;;;;;;;;;6211505;23;20576;-90
2022/07/06 08:23:35;;;;;;;8.88;3.40;;;;;;;;;;6210453;23;20166;-90
2022/07/06 08:26:40;;;;;;;4.03;2.35;;;;;;;;;;6211692;23;20214;-90
2022/07/06 08:29:45;;;;;;;5.63;2.67;;;;;;;;;;6211668;23;20314;-90
2022/07/06 08:32:50;;;;;;;4.13;2.10;;;;;;;;;;6210946;23;20175;-89
2022/07/06 08:35:56;;;;;;;4.93;2.20;;;;;;;;;;6220163;23;20170;-91
2022/07/06 08:39:08;;;;;;;4.88;2.10;;;;;;;;;;6214983;23;20187;-92
2022/07/06 08:42:14;;;;;;;5.70;2.55;;;;;;;;;;6212350;23;20191;-89
2022/07/06 08:45:19;;;;;;;7.50;2.50;;;;;;;;;;6208709;23;20631;-91
2022/07/06 08:48:26;;;;;;;6.50;2.20;;;;;;;;;;6208460;23;20163;-90
2022/07/06 08:51:32;;;;;;;5.47;2.97;;;;;;;;;;6212760;23;20151;-90
2022/07/06 08:54:39;;;;;;;5.55;2.00;;;;;;;;;;6210435;23;20182;-90
2022/07/06 08:57:52;;;;;;;5.40;2.00;;;;;;;;;;6214024;23;20309;-92
2022/07/06 09:00:58;;;;;;;5.00;1.88;;;;;;;;;;6211446;23;20170;-89
2022/07/06 09:04:05;;;;;;;7.15;1.83;;;;;;;;;;6212357;23;20174;-90
2022/07/06 09:07:10;;;;;;;2.38;1.70;;;;;;;;;;6212076;23;20171;-92
2022/07/06 09:10:18;;;;;;;5.15;2.30;;;;;;;;;;6207768;23;20313;-90
2022/07/06 09:13:24;;;;;;;4.13;1.90;;;;;;;;;;6211229;23;20220;-91
2022/07/06 09:16:32;;;;;;;2.90;1.60;;;;;;;;;;6211770;23;20166;-92
2022/07/06 09:19:37;;;;;;;5.00;1.75;;;;;;;;;;6211657;23;20166;-92
2022/07/06 09:22:42;;;;;;;5.03;1.75;;;;;;;;;;6214212;23;20174;-91
2022/07/06 09:25:51;;;;;;;9.45;1.70;;;;;;;;;;6212733;23;20159;-91
2022/07/06 09:28:59;;;;;;;6.25;1.85;;;;;;;;;;6215462;23;20154;-91
2022/07/06 09:32:06;;;;;;;6.32;1.77;;;;;;;;;;6215356;23;20166;-92
2022/07/06 09:35:21;;;;;;;6.20;1.73;;;;;;;;;;6213909;23;20170;-91
2022/07/06 09:38:28;;;;;;;7.68;2.17;;;;;;;;;;6215792;23;20585;-90
2022/07/06 09:41:39;;;;;;;7.13;1.98;;;;;;;;;;6214341;23;20167;-91
2022/07/06 09:44:53;;;;;;;6.60;1.63;;;;;;;;;;6213500;23;20193;-92
2022/07/06 09:48:07;;;;;;;7.25;1.98;;;;;;;;;;6214130;23;20237;-91
2022/07/06 09:51:12;;;;;;;4.93;1.60;;;;;;;;;;6213156;23;20194;-90
2022/07/06 09:54:17;;;;;;;6.68;2.00;;;;;;;;;;6211671;23;20622;-91
2022/07/06 09:57:24;;;;;;;3.00;1.77;;;;;;;;;;6233993;23;20170;-91
2022/07/06 10:00:30;;;;;;;7.38;1.95;;;;;;;;;;6212275;23;20157;-91
2022/07/06 10:03:35;;;;;;;5.45;1.45;;;;;;;;;;6214661;23;20170;-91
2022/07/06 10:06:40;;;;;;;4.25;1.50;;;;;;;;;;6214432;23;20158;-92
2022/07/06 10:09:46;;;;;;;4.07;1.45;;;;;;;;;;6214437;23;20191;-91
2022/07/06 10:12:55;;;;;;;4.43;1.60;;;;;;;;;;6211963;23;20365;-90
2022/07/06 10:15:59;;;;;;;3.50;1.60;;;;;;;;;;6210156;23;20342;-90
2022/07/06 10:19:06;;;;;;;5.53;1.73;;;;;;;;;;6212710;23;20246;-91
2022/07/06 10:22:13;;;;;;;3.55;1.50;;;;;;;;;;6213229;23;20178;-90
2022/07/06 10:25:18;;;;;;;6.25;1.95;;;;;;;;;;6211940;23;20170;-90
2022/07/06 10:28:25;;;;;;;5.05;1.58;;;;;;;;;;6214590;23;20170;-90
2022/07/06 10:31:32;;;;;;;9.73;2.42;;;;;;;;;;6214292;23;20206;-90
2022/07/06 10:34:37;;;;;;;5.07;1.48;;;;;;;;;;6212645;23;20162;-91
2022/07/06 10:37:43;;;;;;;5.53;1.65;;;;;;;;;;6213634;23;20158;-92
2022/07/06 10:41:06;;;;;;;5.75;2.10;;;;;;;;;;6212184;23;20170;-91
2022/07/06 10:44:20;;;;;;;8.88;1.67;;;;;;;;;;6214439;23;20233;-92
2022/07/06 10:47:29;;;;;;;5.93;1.67;;;;;;;;;;6213855;23;20178;-93
2022/07/06 10:50:37;;;;;;;3.65;1.35;;;;;;;;;;6210312;23;20185;-92
2022/07/06 10:53:44;;;;;;;4.70;1.70;;;;;;;;;;6211919;23;20246;-92
2022/07/06 10:56:50;;;;;;;4.13;1.50;;;;;;;;;;6211568;23;20238;-91
2022/07/06 11:00:04;;;;;;;3.00;1.40;;;;;;;;;;6213539;23;20174;-91
2022/07/06 11:03:24;;;;;;;5.80;1.85;;;;;;;;;;6212825;23;20175;-89
2022/07/06 11:06:30;;;;;;;3.58;1.50;;;;;;;;;;6213649;23;20169;-92
2022/07/06 11:09:42;;;;;;;6.38;1.50;;;;;;;;;;6214692;23;20193;-91
2022/07/06 11:12:47;;;;;;;8.07;1.73;;;;;;;;;;6212915;23;20170;-90
2022/07/06 11:16:02;;;;;;;5.97;1.40;;;;;;;;;;6212820;23;20654;-90
2022/07/06 11:19:10;;;;;;;19.83;2.22;;;;;;;;;;6212997;23;20202;-91
2022/07/06 11:22:18;;;;;;;11.88;1.80;;;;;;;;;;6216650;23;20167;-90
2022/07/06 11:25:24;;;;;;;7.55;1.65;;;;;;;;;;6214385;23;20654;-89
2022/07/06 11:28:30;;;;;;;4.18;1.52;;;;;;;;;;6213198;23;20146;-90
2022/07/06 11:31:39;;;;;;;4.45;1.40;;;;;;;;;;6212257;23;20194;-91
2022/07/06 11:34:44;;;;;;;7.22;1.58;;;;;;;;;;6214327;23;20162;-92
2022/07/06 11:41:11;;;;;;;3.33;1.63;;;;;;;;;;6214147;23;20259;-92
2022/07/06 11:44:25;;;;;;;3.08;1.65;;;;;;;;;;6214318;23;20259;-91
2022/07/06 11:47:34;;;;;;;4.95;1.60;;;;;;;;;;6216107;23;20191;-92
2022/07/06 11:50:40;;;;;;;4.88;1.50;;;;;;;;;;6216739;23;20198;-90
2022/07/06 11:53:46;;;;;;;3.58;1.58;;;;;;;;;;6214164;23;20167;-92
2022/07/06 11:56:52;;;;;;;18.27;2.40;;;;;;;;;;6215284;23;20276;-90
2022/07/06 11:59:58;;;;;;;5.90;1.90;;;;;;;;;;6217312;23;20170;-91
2022/07/06 12:03:05;;;;;;;7.45;1.75;;;;;;;;;;6213306;23;20662;-91
2022/07/06 12:06:15;;;;;;;6.75;1.70;;;;;;;;;;6217308;23;20158;-90
2022/07/06 12:09:20;;;;;;;4.53;1.50;;;;;;;;;;6214355;23;20166;-92
2022/07/06 12:12:26;;;;;;;5.95;1.60;;;;;;;;;;6212062;23;20329;-92
2022/07/06 12:15:31;;;;;;;4.43;1.48;;;;;;;;;;6212459;23;20171;-91
2022/07/06 12:18:42;;;;;;;4.60;1.40;;;;;;;;;;6214311;23;20657;-91
2022/07/06 12:21:48;;;;;;;2.53;1.48;;;;;;;;;;6213982;23;20154;-91
2022/07/06 12:24:54;;;;;;;2.55;1.50;;;;;;;;;;6213399;23;20202;-91
2022/07/06 12:27:59;;;;;;;4.78;1.50;;;;;;;;;;6213913;23;20307;-91
2022/07/06 12:31:05;;;;;;;4.70;1.60;;;;;;;;;;6212648;23;20217;-92
2022/07/06 12:34:18;;;;;;;7.32;1.60;;;;;;;;;;6211841;23;20166;-90
2022/07/06 12:37:24;;;;;;;3.38;1.40;;;;;;;;;;6213510;23;20158;-90
2022/07/06 12:40:31;;;;;;;3.63;1.60;;;;;;;;;;6214298;23;20178;-90
2022/07/06 12:47:12;;;;;;;4.55;1.23;;;;;;;;;;6213531;23;20190;-91
2022/07/06 12:50:19;;;;;;;5.32;1.48;;;;;;;;;;6216946;23;20198;-92
2022/07/06 12:53:25;;;;;;;2.42;1.15;;;;;;;;;;6216377;23;20191;-91
2022/07/06 12:56:39;;;;;;;4.80;1.30;;;;;;;;;;6214692;23;20163;-92
2022/07/06 12:59:49;;;;;;;5.13;1.50;;;;;;;;;;6216624;23;20194;-93
2022/07/06 13:02:55;;;;;;;7.13;1.20;;;;;;;;;;6214905;23;20158;-90
2022/07/06 13:06:04;;;;;;;4.78;1.42;;;;;;;;;;6216624;23;20169;-93
2022/07/06 13:09:09;;;;;;;5.00;1.35;;;;;;;;;;6215705;23;20228;-92
2022/07/06 13:12:15;;;;;;;2.90;1.40;;;;;;;;;;6214770;23;20694;-92
2022/07/06 13:15:20;;;;;;;5.15;1.40;;;;;;;;;;6214144;23;20166;-90
2022/07/06 13:18:26;;;;;;;2.47;1.40;;;;;;;;;;6215188;23;20163;-90
2022/07/06 13:21:36;;;;;;;3.67;1.25;;;;;;;;;;6217853;23;20186;-90
2022/07/06 13:24:43;;;;;;;3.58;1.38;;;;;;;;;;6216656;23;20174;-91
2022/07/06 13:27:48;;;;;;;3.22;1.15;;;;;;;;;;6216813;23;20218;-91
2022/07/06 22:42:42;;;;;;;6.80;2.58;;;;;;;;;;6170600;23;20212;-89
2022/07/06 22:45:47;;;;;;;3.40;2.45;;;;;;;;;;6212772;23;20167;-88
2022/07/06 22:48:52;;;;;;;5.28;2.35;;;;;;;;;;6210884;23;20172;-88
2022/07/06 22:51:58;;;;;;;5.28;2.83;;;;;;;;;;6187373;23;20208;-88
2022/07/06 22:55:04;;;;;;;6.10;2.75;;;;;;;;;;6211915;23;20167;-88
2022/07/06 22:58:11;;;;;;;7.00;2.80;;;;;;;;;;6210896;23;20207;-88
2022/07/06 23:01:17;;;;;;;5.65;2.90;;;;;;;;;;6212575;23;20175;-89
2022/07/06 23:04:22;;;;;;;8.23;3.30;;;;;;;;;;6210647;23;20163;-90
2022/07/06 23:07:28;;;;;;;11.00;3.53;;;;;;;;;;6210143;23;20159;-90
2022/07/06 23:10:33;;;;;;;6.55;3.60;;;;;;;;;;6209171;23;20171;-89
2022/07/06 23:13:40;;;;;;;6.50;3.90;;;;;;;;;;6211436;23;20167;-91
2022/07/06 23:16:45;;;;;;;9.43;3.72;;;;;;;;;;6211835;23;20253;-89
2022/07/06 23:19:50;;;;;;;11.02;3.58;;;;;;;;;;6212647;23;20179;-90
2022/07/06 23:22:56;;;;;;;7.75;3.60;;;;;;;;;;6210695;23;20662;-89
2022/07/06 23:26:01;;;;;;;9.52;3.78;;;;;;;;;;6213597;23;20190;-89
2022/07/06 23:29:08;;;;;;;8.25;4.10;;;;;;;;;;6210815;23;20610;-89
2022/07/06 23:32:13;;;;;;;5.53;3.63;;;;;;;;;;6210681;23;20681;-89
2022/07/06 23:35:19;;;;;;;7.32;3.90;;;;;;;;;;6211025;23;20171;-88
2022/07/06 23:38:24;;;;;;;5.00;3.42;;;;;;;;;;6208934;23;20162;-89
2022/07/06 23:41:29;;;;;;;6.82;3.60;;;;;;;;;;6211050;23;20159;-89
2022/07/06 23:44:36;;;;;;;7.72;3.67;;;;;;;;;;6210134;23;20560;-89
2022/07/06 23:47:41;;;;;;;9.00;3.75;;;;;;;;;;6208857;23;20166;-89
2022/07/06 23:50:46;;;;;;;7.57;3.85;;;;;;;;;;6209152;23;20719;-88
2022/07/06 23:53:51;;;;;;;9.75;3.70;;;;;;;;;;6207594;23;20171;-88
2022/07/06 23:56:56;;;;;;;10.15;3.38;;;;;;;;;;6225467;23;20303;-88
